Forrester Center, West Virginia
Current Conditions -  °F | °C
As of 11:53 PM on Wednesday 22 Oct 2014 (Local Time) from KMRB Reporting Station
Broken Clouds Broken Clouds  
Wind Chill: 11°   Ceiling: 3100
Heat Index: 11°   Visibility: 10mi
Dew Point:   Wind: 12mph
Humidity: 63%   Direction: 320°NW
Pressure: 30.01"   Gusts: 20mph
Location:  39.3053°N, 77.8555°W
Report Text: KMRB 230353Z AUTO 32010G17KT 10SM BKN031 11/04 A3001 RMK AO2 SLP163 T01060039 TSNO
Loading
Personal Weather Stations






























Interactive Weather Map
Tropical Storm Tracking
New forecast layout! Learn more

10-Day Weather Forecast

Advertisements
Track Severe Weather on mobile